sensor_id;sensor_type;location;lat;lon;timestamp;P1;durP1;ratioP1;P2;durP2;ratioP2
2055;SDS011;1033;52.560;13.374;2023-11-21T00:01:36;8.50;;;4.93;;
2055;SDS011;1033;52.560;13.374;2023-11-21T00:04:05;4.40;;;3.85;;
2055;SDS011;1033;52.560;13.374;2023-11-21T00:06:35;9.00;;;4.18;;
2055;SDS011;1033;52.560;13.374;2023-11-21T00:09:04;5.10;;;4.30;;
2055;SDS011;1033;52.560;13.374;2023-11-21T00:11:35;12.23;;;6.00;;
2055;SDS011;1033;52.560;13.374;2023-11-21T00:14:06;10.57;;;5.07;;
2055;SDS011;1033;52.560;13.374;2023-11-21T00:16:35;9.65;;;6.63;;
2055;SDS011;1033;52.560;13.374;2023-11-21T00:19:04;8.93;;;5.97;;
2055;SDS011;1033;52.560;13.374;2023-11-21T00:21:33;12.65;;;5.53;;
2055;SDS011;1033;52.560;13.374;2023-11-21T00:24:02;8.18;;;5.40;;
2055;SDS011;1033;52.560;13.374;2023-11-21T00:26:31;10.63;;;5.25;;
2055;SDS011;1033;52.560;13.374;2023-11-21T00:29:05;8.63;;;5.28;;
2055;SDS011;1033;52.560;13.374;2023-11-21T00:31:34;15.50;;;6.43;;
2055;SDS011;1033;52.560;13.374;2023-11-21T00:34:04;11.80;;;6.25;;
2055;SDS011;1033;52.560;13.374;2023-11-21T00:36:33;22.45;;;9.07;;
2055;SDS011;1033;52.560;13.374;2023-11-21T00:39:02;11.82;;;5.72;;
2055;SDS011;1033;52.560;13.374;2023-11-21T00:41:33;8.75;;;4.80;;
2055;SDS011;1033;52.560;13.374;2023-11-21T00:44:03;11.07;;;5.38;;
2055;SDS011;1033;52.560;13.374;2023-11-21T00:46:34;19.10;;;9.20;;
2055;SDS011;1033;52.560;13.374;2023-11-21T00:49:03;14.13;;;7.57;;
2055;SDS011;1033;52.560;13.374;2023-11-21T00:51:32;20.70;;;7.38;;
2055;SDS011;1033;52.560;13.374;2023-11-21T00:54:02;15.52;;;6.85;;
2055;SDS011;1033;52.560;13.374;2023-11-21T00:56:35;14.38;;;6.63;;
2055;SDS011;1033;52.560;13.374;2023-11-21T00:59:06;16.25;;;7.90;;
2055;SDS011;1033;52.560;13.374;2023-11-21T01:01:35;16.65;;;8.00;;
2055;SDS011;1033;52.560;13.374;2023-11-21T01:04:05;22.55;;;9.68;;
2055;SDS011;1033;52.560;13.374;2023-11-21T01:06:34;13.43;;;9.38;;
2055;SDS011;1033;52.560;13.374;2023-11-21T01:09:03;13.23;;;6.97;;
2055;SDS011;1033;52.560;13.374;2023-11-21T01:11:34;18.52;;;8.45;;
2055;SDS011;1033;52.560;13.374;2023-11-21T01:14:05;22.00;;;7.25;;
2055;SDS011;1033;52.560;13.374;2023-11-21T01:16:35;22.15;;;7.65;;
2055;SDS011;1033;52.560;13.374;2023-11-21T01:19:04;20.58;;;8.63;;
2055;SDS011;1033;52.560;13.374;2023-11-21T01:21:34;26.08;;;7.70;;
2055;SDS011;1033;52.560;13.374;2023-11-21T01:24:03;15.93;;;8.23;;
2055;SDS011;1033;52.560;13.374;2023-11-21T01:26:34;20.50;;;5.95;;
2055;SDS011;1033;52.560;13.374;2023-11-21T01:29:03;15.85;;;8.20;;
2055;SDS011;1033;52.560;13.374;2023-11-21T01:31:33;12.15;;;7.15;;
2055;SDS011;1033;52.560;13.374;2023-11-21T01:34:02;18.27;;;6.78;;
2055;SDS011;1033;52.560;13.374;2023-11-21T01:36:31;10.30;;;5.28;;
2055;SDS011;1033;52.560;13.374;2023-11-21T01:39:02;19.27;;;7.25;;
2055;SDS011;1033;52.560;13.374;2023-11-21T01:41:35;16.40;;;6.55;;
2055;SDS011;1033;52.560;13.374;2023-11-21T01:44:04;17.17;;;5.75;;
2055;SDS011;1033;52.560;13.374;2023-11-21T01:46:35;12.70;;;6.35;;
2055;SDS011;1033;52.560;13.374;2023-11-21T01:49:06;14.07;;;6.30;;
2055;SDS011;1033;52.560;13.374;2023-11-21T01:51:36;10.63;;;5.35;;
2055;SDS011;1033;52.560;13.374;2023-11-21T01:54:05;12.63;;;4.40;;
2055;SDS011;1033;52.560;13.374;2023-11-21T01:56:43;11.30;;;5.38;;
2055;SDS011;1033;52.560;13.374;2023-11-21T01:59:16;15.20;;;4.43;;
2055;SDS011;1033;52.560;13.374;2023-11-21T02:01:48;12.80;;;7.70;;
2055;SDS011;1033;52.560;13.374;2023-11-21T02:04:18;7.78;;;5.00;;
2055;SDS011;1033;52.560;13.374;2023-11-21T02:06:48;9.20;;;5.03;;
2055;SDS011;1033;52.560;13.374;2023-11-21T02:09:23;12.77;;;6.03;;
2055;SDS011;1033;52.560;13.374;2023-11-21T02:11:53;7.85;;;4.63;;
2055;SDS011;1033;52.560;13.374;2023-11-21T02:14:26;11.43;;;5.43;;
2055;SDS011;1033;52.560;13.374;2023-11-21T02:16:56;7.80;;;4.07;;
2055;SDS011;1033;52.560;13.374;2023-11-21T02:19:24;7.00;;;4.03;;
2055;SDS011;1033;52.560;13.374;2023-11-21T02:21:57;6.15;;;3.20;;
2055;SDS011;1033;52.560;13.374;2023-11-21T02:24:31;7.30;;;4.05;;
2055;SDS011;1033;52.560;13.374;2023-11-21T02:27:00;6.80;;;2.30;;
2055;SDS011;1033;52.560;13.374;2023-11-21T02:29:29;8.00;;;3.50;;
2055;SDS011;1033;52.560;13.374;2023-11-21T02:31:58;6.55;;;3.78;;
2055;SDS011;1033;52.560;13.374;2023-11-21T02:34:27;7.60;;;3.25;;
2055;SDS011;1033;52.560;13.374;2023-11-21T02:36:56;6.35;;;3.00;;
2055;SDS011;1033;52.560;13.374;2023-11-21T02:42:20;12.10;;;5.38;;
2055;SDS011;1033;52.560;13.374;2023-11-21T02:44:48;6.13;;;4.20;;
2055;SDS011;1033;52.560;13.374;2023-11-21T02:47:17;3.63;;;1.95;;
2055;SDS011;1033;52.560;13.374;2023-11-21T02:49:47;4.97;;;3.83;;
2055;SDS011;1033;52.560;13.374;2023-11-21T02:52:16;6.45;;;4.45;;
2055;SDS011;1033;52.560;13.374;2023-11-21T02:54:46;11.30;;;4.88;;
2055;SDS011;1033;52.560;13.374;2023-11-21T02:57:16;6.47;;;4.55;;
2055;SDS011;1033;52.560;13.374;2023-11-21T02:59:45;8.05;;;2.88;;
2055;SDS011;1033;52.560;13.374;2023-11-21T03:02:14;5.45;;;3.05;;
2055;SDS011;1033;52.560;13.374;2023-11-21T03:04:43;7.00;;;4.28;;
2055;SDS011;1033;52.560;13.374;2023-11-21T03:07:14;4.95;;;4.43;;
2055;SDS011;1033;52.560;13.374;2023-11-21T03:09:45;6.53;;;3.13;;
2055;SDS011;1033;52.560;13.374;2023-11-21T03:12:14;7.13;;;4.68;;
2055;SDS011;1033;52.560;13.374;2023-11-21T03:14:44;8.93;;;4.07;;
2055;SDS011;1033;52.560;13.374;2023-11-21T03:17:14;5.45;;;3.65;;
2055;SDS011;1033;52.560;13.374;2023-11-21T03:19:43;8.20;;;3.88;;
2055;SDS011;1033;52.560;13.374;2023-11-21T03:22:12;7.75;;;3.63;;
2055;SDS011;1033;52.560;13.374;2023-11-21T03:24:41;4.35;;;3.38;;
2055;SDS011;1033;52.560;13.374;2023-11-21T03:27:10;6.88;;;3.97;;
2055;SDS011;1033;52.560;13.374;2023-11-21T03:29:40;7.25;;;4.50;;
2055;SDS011;1033;52.560;13.374;2023-11-21T03:32:13;6.53;;;4.03;;
2055;SDS011;1033;52.560;13.374;2023-11-21T03:34:53;5.53;;;3.05;;
2055;SDS011;1033;52.560;13.374;2023-11-21T03:37:24;4.50;;;2.50;;
2055;SDS011;1033;52.560;13.374;2023-11-21T03:39:54;6.22;;;3.35;;
2055;SDS011;1033;52.560;13.374;2023-11-21T03:42:24;6.85;;;3.38;;
2055;SDS011;1033;52.560;13.374;2023-11-21T03:44:55;7.25;;;4.10;;
2055;SDS011;1033;52.560;13.374;2023-11-21T03:47:27;5.15;;;3.35;;
2055;SDS011;1033;52.560;13.374;2023-11-21T03:49:56;6.80;;;5.40;;
2055;SDS011;1033;52.560;13.374;2023-11-21T03:52:25;9.55;;;4.03;;
2055;SDS011;1033;52.560;13.374;2023-11-21T03:54:55;9.68;;;4.18;;
2055;SDS011;1033;52.560;13.374;2023-11-21T03:57:24;4.75;;;3.38;;
2055;SDS011;1033;52.560;13.374;2023-11-21T03:59:55;12.93;;;3.70;;
2055;SDS011;1033;52.560;13.374;2023-11-21T04:02:24;7.97;;;3.60;;
2055;SDS011;1033;52.560;13.374;2023-11-21T04:04:54;5.45;;;3.30;;
2055;SDS011;1033;52.560;13.374;2023-11-21T04:07:23;5.68;;;3.08;;
2055;SDS011;1033;52.560;13.374;2023-11-21T04:09:52;4.70;;;3.63;;
2055;SDS011;1033;52.560;13.374;2023-11-21T04:12:21;6.90;;;3.70;;
2055;SDS011;1033;52.560;13.374;2023-11-21T04:14:50;5.93;;;3.53;;
2055;SDS011;1033;52.560;13.374;2023-11-21T04:17:23;7.57;;;2.83;;
2055;SDS011;1033;52.560;13.374;2023-11-21T04:19:51;9.68;;;4.88;;
2055;SDS011;1033;52.560;13.374;2023-11-21T04:22:21;5.78;;;2.67;;
2055;SDS011;1033;52.560;13.374;2023-11-21T04:28:13;4.03;;;3.40;;
2055;SDS011;1033;52.560;13.374;2023-11-21T04:30:42;7.35;;;4.57;;
2055;SDS011;1033;52.560;13.374;2023-11-21T04:33:13;6.55;;;2.97;;
2055;SDS011;1033;52.560;13.374;2023-11-21T04:35:42;8.65;;;4.55;;
2055;SDS011;1033;52.560;13.374;2023-11-21T04:38:11;6.57;;;4.28;;
2055;SDS011;1033;52.560;13.374;2023-11-21T04:40:40;8.57;;;4.55;;
2055;SDS011;1033;52.560;13.374;2023-11-21T04:43:10;6.15;;;3.55;;
2055;SDS011;1033;52.560;13.374;2023-11-21T04:45:39;6.15;;;3.22;;
2055;SDS011;1033;52.560;13.374;2023-11-21T04:48:07;6.15;;;2.65;;
2055;SDS011;1033;52.560;13.374;2023-11-21T04:50:38;5.90;;;3.85;;
2055;SDS011;1033;52.560;13.374;2023-11-21T04:53:07;5.22;;;3.08;;
2055;SDS011;1033;52.560;13.374;2023-11-21T04:55:35;6.38;;;3.00;;
2055;SDS011;1033;52.560;13.374;2023-11-21T04:58:05;9.02;;;2.97;;
2055;SDS011;1033;52.560;13.374;2023-11-21T05:00:34;3.60;;;3.25;;
2055;SDS011;1033;52.560;13.374;2023-11-21T05:03:03;7.22;;;3.38;;
2055;SDS011;1033;52.560;13.374;2023-11-21T05:05:33;4.80;;;3.90;;
2055;SDS011;1033;52.560;13.374;2023-11-21T05:08:04;3.10;;;2.72;;
2055;SDS011;1033;52.560;13.374;2023-11-21T05:10:33;9.35;;;3.53;;
2055;SDS011;1033;52.560;13.374;2023-11-21T05:13:04;7.10;;;3.30;;
2055;SDS011;1033;52.560;13.374;2023-11-21T05:15:36;5.07;;;2.63;;
2055;SDS011;1033;52.560;13.374;2023-11-21T05:18:05;5.90;;;2.67;;
2055;SDS011;1033;52.560;13.374;2023-11-21T05:20:34;3.65;;;2.25;;
2055;SDS011;1033;52.560;13.374;2023-11-21T05:23:06;8.65;;;4.75;;
2055;SDS011;1033;52.560;13.374;2023-11-21T05:25:35;8.40;;;5.22;;
2055;SDS011;1033;52.560;13.374;2023-11-21T05:28:06;5.90;;;3.80;;
2055;SDS011;1033;52.560;13.374;2023-11-21T05:30:35;4.55;;;3.25;;
2055;SDS011;1033;52.560;13.374;2023-11-21T05:33:05;6.47;;;3.10;;
2055;SDS011;1033;52.560;13.374;2023-11-21T05:35:34;6.80;;;3.58;;
2055;SDS011;1033;52.560;13.374;2023-11-21T05:38:03;7.78;;;3.70;;
2055;SDS011;1033;52.560;13.374;2023-11-21T05:40:34;4.63;;;2.10;;
2055;SDS011;1033;52.560;13.374;2023-11-21T05:43:03;7.72;;;3.92;;
2055;SDS011;1033;52.560;13.374;2023-11-21T05:45:32;5.95;;;2.72;;
2055;SDS011;1033;52.560;13.374;2023-11-21T05:48:01;5.38;;;2.35;;
2055;SDS011;1033;52.560;13.374;2023-11-21T05:50:30;6.65;;;3.97;;
2055;SDS011;1033;52.560;13.374;2023-11-21T05:53:00;4.50;;;2.42;;
2055;SDS011;1033;52.560;13.374;2023-11-21T05:55:30;5.38;;;3.33;;
2055;SDS011;1033;52.560;13.374;2023-11-21T05:57:59;5.85;;;3.65;;
2055;SDS011;1033;52.560;13.374;2023-11-21T06:00:27;3.13;;;2.22;;
2055;SDS011;1033;52.560;13.374;2023-11-21T06:02:56;3.42;;;2.42;;
2055;SDS011;1033;52.560;13.374;2023-11-21T06:05:25;6.63;;;2.60;;
2055;SDS011;1033;52.560;13.374;2023-11-21T06:07:55;3.42;;;3.13;;
2055;SDS011;1033;52.560;13.374;2023-11-21T06:10:25;4.30;;;2.28;;
2055;SDS011;1033;52.560;13.374;2023-11-21T06:12:57;6.93;;;3.20;;
2055;SDS011;1033;52.560;13.374;2023-11-21T06:15:29;2.67;;;2.47;;
2055;SDS011;1033;52.560;13.374;2023-11-21T06:17:58;3.45;;;1.70;;
2055;SDS011;1033;52.560;13.374;2023-11-21T06:20:28;3.88;;;2.10;;
2055;SDS011;1033;52.560;13.374;2023-11-21T06:22:57;2.53;;;2.17;;
2055;SDS011;1033;52.560;13.374;2023-11-21T06:25:30;5.38;;;3.35;;
2055;SDS011;1033;52.560;13.374;2023-11-21T06:28:01;5.68;;;3.60;;
2055;SDS011;1033;52.560;13.374;2023-11-21T06:30:30;5.95;;;2.13;;
2055;SDS011;1033;52.560;13.374;2023-11-21T06:32:59;2.85;;;2.40;;
2055;SDS011;1033;52.560;13.374;2023-11-21T06:35:28;3.55;;;1.67;;
2055;SDS011;1033;52.560;13.374;2023-11-21T06:38:00;3.13;;;1.58;;
2055;SDS011;1033;52.560;13.374;2023-11-21T06:40:29;3.53;;;1.95;;
2055;SDS011;1033;52.560;13.374;2023-11-21T06:43:01;3.70;;;2.63;;
2055;SDS011;1033;52.560;13.374;2023-11-21T06:45:31;3.20;;;2.20;;
2055;SDS011;1033;52.560;13.374;2023-11-21T06:48:00;3.38;;;1.65;;
2055;SDS011;1033;52.560;13.374;2023-11-21T06:50:30;2.30;;;1.42;;
2055;SDS011;1033;52.560;13.374;2023-11-21T06:52:58;3.10;;;1.90;;
2055;SDS011;1033;52.560;13.374;2023-11-21T06:55:30;2.75;;;1.58;;
2055;SDS011;1033;52.560;13.374;2023-11-21T06:57:59;2.50;;;1.63;;
2055;SDS011;1033;52.560;13.374;2023-11-21T07:00:31;4.03;;;2.92;;
2055;SDS011;1033;52.560;13.374;2023-11-21T07:03:00;3.28;;;2.20;;
2055;SDS011;1033;52.560;13.374;2023-11-21T07:05:29;3.55;;;1.92;;
2055;SDS011;1033;52.560;13.374;2023-11-21T07:07:58;5.25;;;2.47;;
2055;SDS011;1033;52.560;13.374;2023-11-21T07:10:31;5.55;;;4.85;;
2055;SDS011;1033;52.560;13.374;2023-11-21T07:13:03;8.38;;;4.13;;
2055;SDS011;1033;52.560;13.374;2023-11-21T07:15:32;7.80;;;7.00;;
2055;SDS011;1033;52.560;13.374;2023-11-21T07:18:01;6.90;;;3.20;;
2055;SDS011;1033;52.560;13.374;2023-11-21T07:20:31;9.77;;;6.63;;
2055;SDS011;1033;52.560;13.374;2023-11-21T07:23:00;16.75;;;10.95;;
2055;SDS011;1033;52.560;13.374;2023-11-21T07:25:30;5.55;;;4.95;;
2055;SDS011;1033;52.560;13.374;2023-11-21T07:28:00;6.28;;;5.47;;
2055;SDS011;1033;52.560;13.374;2023-11-21T07:30:31;31.40;;;20.33;;
2055;SDS011;1033;52.560;13.374;2023-11-21T07:33:00;7.30;;;5.93;;
2055;SDS011;1033;52.560;13.374;2023-11-21T07:35:29;5.45;;;4.10;;
2055;SDS011;1033;52.560;13.374;2023-11-21T07:37:58;8.77;;;5.50;;
2055;SDS011;1033;52.560;13.374;2023-11-21T07:40:27;5.00;;;4.15;;
2055;SDS011;1033;52.560;13.374;2023-11-21T07:42:57;3.10;;;2.33;;
2055;SDS011;1033;52.560;13.374;2023-11-21T07:45:28;4.85;;;2.95;;
2055;SDS011;1033;52.560;13.374;2023-11-21T07:47:57;5.70;;;3.92;;
2055;SDS011;1033;52.560;13.374;2023-11-21T07:50:27;8.38;;;6.32;;
2055;SDS011;1033;52.560;13.374;2023-11-21T07:52:56;5.40;;;5.00;;
2055;SDS011;1033;52.560;13.374;2023-11-21T07:55:26;9.07;;;5.32;;
2055;SDS011;1033;52.560;13.374;2023-11-21T07:57:58;7.80;;;4.00;;
2055;SDS011;1033;52.560;13.374;2023-11-21T08:00:29;7.35;;;3.60;;
2055;SDS011;1033;52.560;13.374;2023-11-21T08:02:58;8.88;;;3.85;;
2055;SDS011;1033;52.560;13.374;2023-11-21T08:05:27;4.97;;;2.70;;
2055;SDS011;1033;52.560;13.374;2023-11-21T08:08:03;2.22;;;2.05;;
2055;SDS011;1033;52.560;13.374;2023-11-21T08:10:32;3.05;;;2.70;;
2055;SDS011;1033;52.560;13.374;2023-11-21T08:13:02;2.80;;;1.90;;
2055;SDS011;1033;52.560;13.374;2023-11-21T08:15:33;5.20;;;2.60;;
2055;SDS011;1033;52.560;13.374;2023-11-21T08:18:03;2.72;;;2.20;;
2055;SDS011;1033;52.560;13.374;2023-11-21T08:20:34;2.55;;;1.75;;
2055;SDS011;1033;52.560;13.374;2023-11-21T08:23:05;3.10;;;2.10;;
2055;SDS011;1033;52.560;13.374;2023-11-21T08:25:34;3.20;;;2.25;;
2055;SDS011;1033;52.560;13.374;2023-11-21T08:28:03;6.07;;;2.55;;
2055;SDS011;1033;52.560;13.374;2023-11-21T08:30:33;2.72;;;1.10;;
2055;SDS011;1033;52.560;13.374;2023-11-21T08:33:02;1.50;;;1.10;;
2055;SDS011;1033;52.560;13.374;2023-11-21T08:35:31;2.25;;;1.70;;
2055;SDS011;1033;52.560;13.374;2023-11-21T08:38:01;2.55;;;2.03;;
2055;SDS011;1033;52.560;13.374;2023-11-21T08:40:30;2.92;;;2.58;;
2055;SDS011;1033;52.560;13.374;2023-11-21T08:42:59;6.20;;;1.98;;
2055;SDS011;1033;52.560;13.374;2023-11-21T08:45:31;3.85;;;2.15;;
2055;SDS011;1033;52.560;13.374;2023-11-21T08:48:01;3.10;;;1.95;;
2055;SDS011;1033;52.560;13.374;2023-11-21T08:50:30;3.80;;;2.35;;
2055;SDS011;1033;52.560;13.374;2023-11-21T08:53:00;2.08;;;1.88;;
2055;SDS011;1033;52.560;13.374;2023-11-21T08:55:29;6.40;;;2.13;;
2055;SDS011;1033;52.560;13.374;2023-11-21T08:57:58;1.20;;;1.10;;
2055;SDS011;1033;52.560;13.374;2023-11-21T09:00:27;3.50;;;1.65;;
2055;SDS011;1033;52.560;13.374;2023-11-21T09:02:57;2.08;;;1.70;;
2055;SDS011;1033;52.560;13.374;2023-11-21T09:05:26;3.88;;;1.80;;
2055;SDS011;1033;52.560;13.374;2023-11-21T09:07:55;3.92;;;1.60;;
2055;SDS011;1033;52.560;13.374;2023-11-21T09:10:24;5.97;;;1.70;;
2055;SDS011;1033;52.560;13.374;2023-11-21T09:12:54;2.92;;;2.20;;
2055;SDS011;1033;52.560;13.374;2023-11-21T09:15:24;2.40;;;1.52;;
2055;SDS011;1033;52.560;13.374;2023-11-21T09:17:53;2.67;;;1.90;;
2055;SDS011;1033;52.560;13.374;2023-11-21T09:20:24;4.65;;;2.50;;
2055;SDS011;1033;52.560;13.374;2023-11-21T09:22:53;2.85;;;1.73;;
2055;SDS011;1033;52.560;13.374;2023-11-21T09:25:23;3.78;;;2.45;;
2055;SDS011;1033;52.560;13.374;2023-11-21T09:27:52;3.92;;;2.72;;
2055;SDS011;1033;52.560;13.374;2023-11-21T09:30:21;4.30;;;1.75;;
2055;SDS011;1033;52.560;13.374;2023-11-21T09:32:51;2.90;;;2.22;;
2055;SDS011;1033;52.560;13.374;2023-11-21T09:35:20;7.70;;;3.50;;
2055;SDS011;1033;52.560;13.374;2023-11-21T09:37:50;3.67;;;2.20;;
2055;SDS011;1033;52.560;13.374;2023-11-21T09:40:20;4.82;;;4.38;;
2055;SDS011;1033;52.560;13.374;2023-11-21T09:42:52;4.65;;;2.88;;
2055;SDS011;1033;52.560;13.374;2023-11-21T09:45:27;3.25;;;1.95;;
2055;SDS011;1033;52.560;13.374;2023-11-21T09:47:58;6.22;;;4.22;;
2055;SDS011;1033;52.560;13.374;2023-11-21T09:50:28;3.95;;;3.00;;
2055;SDS011;1033;52.560;13.374;2023-11-21T09:53:05;5.05;;;3.40;;
2055;SDS011;1033;52.560;13.374;2023-11-21T09:55:43;5.32;;;2.33;;
2055;SDS011;1033;52.560;13.374;2023-11-21T09:58:13;6.30;;;5.22;;
2055;SDS011;1033;52.560;13.374;2023-11-21T10:00:44;10.75;;;3.58;;
2055;SDS011;1033;52.560;13.374;2023-11-21T10:03:13;13.35;;;3.35;;
2055;SDS011;1033;52.560;13.374;2023-11-21T10:05:43;3.25;;;2.42;;
2055;SDS011;1033;52.560;13.374;2023-11-21T10:08:14;6.88;;;3.15;;
2055;SDS011;1033;52.560;13.374;2023-11-21T10:10:44;6.88;;;2.92;;
2055;SDS011;1033;52.560;13.374;2023-11-21T10:13:15;5.05;;;3.67;;
2055;SDS011;1033;52.560;13.374;2023-11-21T10:15:48;7.45;;;4.07;;
2055;SDS011;1033;52.560;13.374;2023-11-21T10:18:20;5.28;;;2.30;;
2055;SDS011;1033;52.560;13.374;2023-11-21T10:20:51;5.03;;;1.58;;
2055;SDS011;1033;52.560;13.374;2023-11-21T10:23:23;5.72;;;2.30;;
2055;SDS011;1033;52.560;13.374;2023-11-21T10:25:52;3.63;;;1.55;;
2055;SDS011;1033;52.560;13.374;2023-11-21T10:28:27;6.30;;;2.83;;
2055;SDS011;1033;52.560;13.374;2023-11-21T10:30:57;3.35;;;3.08;;
2055;SDS011;1033;52.560;13.374;2023-11-21T10:33:29;15.25;;;11.85;;
2055;SDS011;1033;52.560;13.374;2023-11-21T10:35:59;4.43;;;2.40;;
2055;SDS011;1033;52.560;13.374;2023-11-21T10:38:30;4.38;;;3.90;;
2055;SDS011;1033;52.560;13.374;2023-11-21T10:41:11;11.30;;;6.90;;
2055;SDS011;1033;52.560;13.374;2023-11-21T10:43:43;6.25;;;5.60;;
2055;SDS011;1033;52.560;13.374;2023-11-21T10:46:12;7.40;;;3.53;;
2055;SDS011;1033;52.560;13.374;2023-11-21T10:48:42;4.07;;;3.78;;
2055;SDS011;1033;52.560;13.374;2023-11-21T10:51:10;8.98;;;5.70;;
2055;SDS011;1033;52.560;13.374;2023-11-21T10:53:41;6.43;;;5.38;;
2055;SDS011;1033;52.560;13.374;2023-11-21T10:56:14;5.93;;;3.08;;
2055;SDS011;1033;52.560;13.374;2023-11-21T10:58:45;1.60;;;1.45;;
2055;SDS011;1033;52.560;13.374;2023-11-21T11:01:16;3.38;;;1.15;;
2055;SDS011;1033;52.560;13.374;2023-11-21T11:03:48;1.40;;;1.30;;
2055;SDS011;1033;52.560;13.374;2023-11-21T11:06:21;3.00;;;1.75;;
2055;SDS011;1033;52.560;13.374;2023-11-21T11:08:55;4.07;;;2.60;;
2055;SDS011;1033;52.560;13.374;2023-11-21T11:11:24;1.83;;;1.20;;
2055;SDS011;1033;52.560;13.374;2023-11-21T11:13:54;2.75;;;1.75;;
2055;SDS011;1033;52.560;13.374;2023-11-21T11:16:25;2.08;;;1.35;;
2055;SDS011;1033;52.560;13.374;2023-11-21T11:18:55;2.47;;;1.42;;
2055;SDS011;1033;52.560;13.374;2023-11-21T11:21:26;2.72;;;1.92;;
2055;SDS011;1033;52.560;13.374;2023-11-21T11:24:16;7.65;;;1.23;;
2055;SDS011;1033;52.560;13.374;2023-11-21T11:26:56;3.55;;;1.33;;
2055;SDS011;1033;52.560;13.374;2023-11-21T11:29:32;1.33;;;1.23;;
2055;SDS011;1033;52.560;13.374;2023-11-21T11:32:10;1.20;;;1.02;;
2055;SDS011;1033;52.560;13.374;2023-11-21T11:34:50;2.65;;;2.45;;
2055;SDS011;1033;52.560;13.374;2023-11-21T11:37:28;2.60;;;1.00;;
2055;SDS011;1033;52.560;13.374;2023-11-21T11:39:59;1.83;;;1.00;;
2055;SDS011;1033;52.560;13.374;2023-11-21T11:42:28;1.85;;;0.80;;
2055;SDS011;1033;52.560;13.374;2023-11-21T11:44:57;2.00;;;1.20;;
2055;SDS011;1033;52.560;13.374;2023-11-21T11:47:27;1.90;;;1.27;;
2055;SDS011;1033;52.560;13.374;2023-11-21T11:50:03;1.45;;;1.00;;
2055;SDS011;1033;52.560;13.374;2023-11-21T11:52:38;1.20;;;1.00;;
2055;SDS011;1033;52.560;13.374;2023-11-21T11:55:11;2.30;;;1.30;;
2055;SDS011;1033;52.560;13.374;2023-11-21T11:57:45;3.00;;;1.70;;
2055;SDS011;1033;52.560;13.374;2023-11-21T12:00:21;1.80;;;1.05;;
2055;SDS011;1033;52.560;13.374;2023-11-21T12:03:04;0.90;;;0.80;;
2055;SDS011;1033;52.560;13.374;2023-11-21T12:05:35;3.22;;;1.40;;
2055;SDS011;1033;52.560;13.374;2023-11-21T12:08:06;2.20;;;1.50;;
2055;SDS011;1033;52.560;13.374;2023-11-21T12:10:38;2.05;;;1.35;;
2055;SDS011;1033;52.560;13.374;2023-11-21T12:13:08;1.95;;;1.45;;
2055;SDS011;1033;52.560;13.374;2023-11-21T12:15:39;2.40;;;1.45;;
2055;SDS011;1033;52.560;13.374;2023-11-21T12:18:09;1.75;;;1.58;;
2055;SDS011;1033;52.560;13.374;2023-11-21T12:20:38;8.02;;;1.65;;
2055;SDS011;1033;52.560;13.374;2023-11-21T12:23:09;3.08;;;1.63;;
2055;SDS011;1033;52.560;13.374;2023-11-21T12:25:39;2.58;;;1.80;;
2055;SDS011;1033;52.560;13.374;2023-11-21T12:28:09;2.63;;;2.30;;
2055;SDS011;1033;52.560;13.374;2023-11-21T12:30:38;2.13;;;1.00;;
2055;SDS011;1033;52.560;13.374;2023-11-21T12:33:07;2.95;;;1.48;;
2055;SDS011;1033;52.560;13.374;2023-11-21T12:35:37;4.05;;;1.88;;
2055;SDS011;1033;52.560;13.374;2023-11-21T12:38:06;1.80;;;1.10;;
2055;SDS011;1033;52.560;13.374;2023-11-21T12:40:36;2.33;;;1.38;;
2055;SDS011;1033;52.560;13.374;2023-11-21T12:43:08;2.47;;;1.55;;
2055;SDS011;1033;52.560;13.374;2023-11-21T12:45:37;2.38;;;2.10;;
2055;SDS011;1033;52.560;13.374;2023-11-21T12:48:06;1.20;;;0.80;;
2055;SDS011;1033;52.560;13.374;2023-11-21T12:50:38;1.60;;;1.38;;
2055;SDS011;1033;52.560;13.374;2023-11-21T12:53:08;2.80;;;1.75;;
2055;SDS011;1033;52.560;13.374;2023-11-21T12:55:39;2.55;;;1.48;;
2055;SDS011;1033;52.560;13.374;2023-11-21T12:58:10;2.03;;;1.15;;
2055;SDS011;1033;52.560;13.374;2023-11-21T13:00:40;3.38;;;2.65;;
2055;SDS011;1033;52.560;13.374;2023-11-21T13:03:11;2.33;;;1.90;;
2055;SDS011;1033;52.560;13.374;2023-11-21T13:05:44;2.42;;;1.40;;
2055;SDS011;1033;52.560;13.374;2023-11-21T13:08:18;4.13;;;1.80;;
2055;SDS011;1033;52.560;13.374;2023-11-21T13:10:50;5.45;;;2.67;;
2055;SDS011;1033;52.560;13.374;2023-11-21T13:13:24;4.40;;;2.25;;
2055;SDS011;1033;52.560;13.374;2023-11-21T13:15:55;3.92;;;2.65;;
2055;SDS011;1033;52.560;13.374;2023-11-21T13:18:28;3.90;;;3.38;;
2055;SDS011;1033;52.560;13.374;2023-11-21T13:20:58;13.38;;;3.38;;
2055;SDS011;1033;52.560;13.374;2023-11-21T13:23:29;4.22;;;2.30;;
2055;SDS011;1033;52.560;13.374;2023-11-21T13:26:04;3.40;;;2.13;;
2055;SDS011;1033;52.560;13.374;2023-11-21T13:28:37;6.70;;;3.85;;
2055;SDS011;1033;52.560;13.374;2023-11-21T13:31:08;3.45;;;2.05;;
2055;SDS011;1033;52.560;13.374;2023-11-21T13:33:48;5.13;;;3.55;;
2055;SDS011;1033;52.560;13.374;2023-11-21T13:36:23;6.05;;;3.22;;
2055;SDS011;1033;52.560;13.374;2023-11-21T13:38:56;3.47;;;2.80;;
2055;SDS011;1033;52.560;13.374;2023-11-21T13:41:31;4.35;;;2.63;;
2055;SDS011;1033;52.560;13.374;2023-11-21T13:44:01;9.52;;;6.22;;
2055;SDS011;1033;52.560;13.374;2023-11-21T13:46:42;3.90;;;3.33;;
2055;SDS011;1033;52.560;13.374;2023-11-21T13:49:12;3.95;;;2.63;;
2055;SDS011;1033;52.560;13.374;2023-11-21T13:51:42;6.97;;;3.60;;
2055;SDS011;1033;52.560;13.374;2023-11-21T13:54:14;5.72;;;4.32;;
2055;SDS011;1033;52.560;13.374;2023-11-21T13:56:44;9.68;;;5.60;;
2055;SDS011;1033;52.560;13.374;2023-11-21T13:59:17;9.43;;;4.82;;
2055;SDS011;1033;52.560;13.374;2023-11-21T14:01:50;9.52;;;4.57;;
2055;SDS011;1033;52.560;13.374;2023-11-21T14:04:24;13.15;;;6.40;;
2055;SDS011;1033;52.560;13.374;2023-11-21T14:07:13;8.63;;;4.85;;
2055;SDS011;1033;52.560;13.374;2023-11-21T14:09:52;9.73;;;4.30;;
2055;SDS011;1033;52.560;13.374;2023-11-21T14:12:22;4.28;;;3.88;;
2055;SDS011;1033;52.560;13.374;2023-11-21T14:14:52;7.75;;;4.05;;
2055;SDS011;1033;52.560;13.374;2023-11-21T14:17:21;4.45;;;3.28;;
2055;SDS011;1033;52.560;13.374;2023-11-21T14:19:51;3.15;;;2.78;;
2055;SDS011;1033;52.560;13.374;2023-11-21T14:22:22;11.02;;;4.20;;
2055;SDS011;1033;52.560;13.374;2023-11-21T14:24:53;6.38;;;4.00;;
2055;SDS011;1033;52.560;13.374;2023-11-21T14:27:25;11.48;;;5.05;;
2055;SDS011;1033;52.560;13.374;2023-11-21T14:29:56;10.35;;;6.13;;
2055;SDS011;1033;52.560;13.374;2023-11-21T14:32:25;10.70;;;5.82;;
2055;SDS011;1033;52.560;13.374;2023-11-21T14:34:54;6.00;;;4.28;;
2055;SDS011;1033;52.560;13.374;2023-11-21T14:37:24;14.30;;;5.30;;
2055;SDS011;1033;52.560;13.374;2023-11-21T14:39:53;8.90;;;4.22;;
2055;SDS011;1033;52.560;13.374;2023-11-21T14:42:23;7.80;;;5.57;;
2055;SDS011;1033;52.560;13.374;2023-11-21T14:44:57;6.75;;;5.50;;
2055;SDS011;1033;52.560;13.374;2023-11-21T14:47:29;8.48;;;4.63;;
2055;SDS011;1033;52.560;13.374;2023-11-21T14:49:59;7.70;;;6.90;;
2055;SDS011;1033;52.560;13.374;2023-11-21T14:52:48;8.85;;;3.72;;
2055;SDS011;1033;52.560;13.374;2023-11-21T14:55:22;5.18;;;4.60;;
2055;SDS011;1033;52.560;13.374;2023-11-21T14:57:58;9.70;;;6.07;;
2055;SDS011;1033;52.560;13.374;2023-11-21T15:00:32;5.75;;;3.72;;
2055;SDS011;1033;52.560;13.374;2023-11-21T15:03:11;6.55;;;5.93;;
2055;SDS011;1033;52.560;13.374;2023-11-21T15:06:04;6.90;;;4.45;;
2055;SDS011;1033;52.560;13.374;2023-11-21T15:08:49;8.27;;;6.15;;
2055;SDS011;1033;52.560;13.374;2023-11-21T15:11:34;10.25;;;4.95;;
2055;SDS011;1033;52.560;13.374;2023-11-21T15:14:05;7.45;;;5.78;;
2055;SDS011;1033;52.560;13.374;2023-11-21T15:16:37;8.18;;;5.80;;
2055;SDS011;1033;52.560;13.374;2023-11-21T15:19:09;6.40;;;4.10;;
2055;SDS011;1033;52.560;13.374;2023-11-21T15:21:44;6.80;;;4.78;;
2055;SDS011;1033;52.560;13.374;2023-11-21T15:24:13;11.93;;;4.30;;
2055;SDS011;1033;52.560;13.374;2023-11-21T15:26:42;4.93;;;4.10;;